Time;durP1;ratioP1;P1;durP2;ratioP2;P2;SDS_P1;SDS_P2;PMS_P1;PMS_P2;Temp;Humidity;BMP_temperature;BMP_pressure;BME280_temperature;BME280_humidity;BME280_pressure;Samples;Min_cycle;Max_cycle;Signal;HPM_P1;HPM_P2
2023/09/15 00:00:16;;;;;;;1999.90;999.90;;;;;;;16.88;100.00;94577.50;5004403;28;20202;-53
2023/09/15 00:02:42;;;;;;;1999.90;999.90;;;;;;;16.80;100.00;94568.03;5003998;28;20202;-46
2023/09/15 00:05:08;;;;;;;1999.90;999.90;;;;;;;16.82;100.00;94560.06;5004149;28;20219;-49
2023/09/15 00:07:35;;;;;;;1999.90;999.90;;;;;;;16.78;100.00;94559.47;5004287;28;20224;-51
2023/09/15 00:10:01;;;;;;;1999.90;999.90;;;;;;;16.78;100.00;94562.22;5004155;28;20222;-49
2023/09/15 00:12:26;;;;;;;1999.90;999.90;;;;;;;16.71;100.00;94554.25;5003899;28;20199;-49
2023/09/15 00:14:52;;;;;;;1999.90;999.90;;;;;;;16.61;100.00;94545.22;5004538;28;20187;-50
2023/09/15 00:17:17;;;;;;;1999.90;999.90;;;;;;;16.56;100.00;94550.59;5008436;28;20251;-48
2023/09/15 00:19:42;;;;;;;1999.90;999.90;;;;;;;16.51;100.00;94545.72;5007503;28;20195;-52
2023/09/15 00:22:08;;;;;;;1999.90;999.90;;;;;;;16.44;100.00;94550.28;5008216;28;20250;-53
2023/09/15 00:24:35;;;;;;;1999.90;999.90;;;;;;;16.37;100.00;94547.84;5007381;28;20219;-54
2023/09/15 00:27:01;;;;;;;1999.90;999.90;;;;;;;16.34;100.00;94537.75;5007508;28;20200;-50
2023/09/15 00:29:26;;;;;;;1999.90;999.90;;;;;;;16.29;100.00;94534.84;5007807;28;20206;-53
2023/09/15 00:31:51;;;;;;;1999.90;999.90;;;;;;;16.23;100.00;94526.44;5007693;28;20216;-52
2023/09/15 00:34:17;;;;;;;1999.90;999.90;;;;;;;16.16;100.00;94525.97;5007553;28;20255;-52
2023/09/15 00:36:45;;;;;;;1999.90;999.90;;;;;;;16.11;100.00;94527.31;5007674;28;20187;-54
2023/09/15 00:39:11;;;;;;;1999.90;999.90;;;;;;;16.09;100.00;94520.75;5023821;28;20194;-53
2023/09/15 00:41:36;;;;;;;1999.90;999.90;;;;;;;16.06;100.00;94514.19;5007259;28;20183;-51
2023/09/15 00:44:01;;;;;;;1999.90;999.90;;;;;;;16.05;100.00;94511.88;5007708;28;20172;-52
2023/09/15 00:46:27;;;;;;;1999.90;999.90;;;;;;;16.00;100.00;94507.00;5007498;28;20215;-52
2023/09/15 00:48:55;;;;;;;1999.90;999.90;;;;;;;15.96;100.00;94507.13;5007796;28;20262;-52
2023/09/15 00:51:21;;;;;;;1999.90;999.90;;;;;;;15.94;100.00;94506.06;5007336;28;20207;-52
2023/09/15 00:53:46;;;;;;;1999.90;999.90;;;;;;;15.89;100.00;94495.69;5007334;28;20310;-50
2023/09/15 00:56:12;;;;;;;1999.90;999.90;;;;;;;15.85;100.00;94490.31;5006976;28;20206;-53
2023/09/15 00:58:40;;;;;;;1999.90;999.90;;;;;;;15.82;100.00;94484.97;5007111;28;20223;-50
2023/09/15 01:01:06;;;;;;;1999.90;999.90;;;;;;;15.78;100.00;94481.59;5007078;28;20198;-53
2023/09/15 01:03:35;;;;;;;1999.90;999.90;;;;;;;15.73;100.00;94477.47;5007127;28;20207;-52
2023/09/15 01:06:01;;;;;;;1999.90;999.90;;;;;;;15.68;100.00;94469.06;5007113;28;20187;-51
2023/09/15 01:08:27;;;;;;;1999.90;999.90;;;;;;;15.63;100.00;94453.91;5007314;28;20184;-51
2023/09/15 01:10:53;;;;;;;1999.90;999.90;;;;;;;15.58;100.00;94443.50;5023117;28;20214;-48
2023/09/15 01:13:18;;;;;;;1999.90;999.90;;;;;;;15.51;100.00;94445.78;5007170;28;20164;-51
2023/09/15 01:16:19;;;;;;;1999.90;999.90;;;;;;;15.45;100.00;94433.88;5006459;28;20192;-49
2023/09/15 01:19:00;;;;;;;1999.90;999.90;;;;;;;15.37;100.00;94429.91;4974433;28;20419;-52
2023/09/15 01:21:59;;;;;;;1999.90;999.90;;;;;;;15.30;100.00;94428.16;5023457;28;20192;-52
2023/09/15 01:24:42;;;;;;;1999.90;999.90;;;;;;;15.26;100.00;94410.28;5023263;28;20196;-50
2023/09/15 01:27:26;;;;;;;1999.90;999.90;;;;;;;15.24;100.00;94413.50;5021994;28;20202;-52
2023/09/15 01:29:54;;;;;;;1999.90;999.90;;;;;;;15.22;100.00;94410.44;5023019;28;20208;-52
2023/09/15 01:32:20;;;;;;;1999.90;999.90;;;;;;;15.17;100.00;94397.28;5006901;28;20210;-50
2023/09/15 01:34:48;;;;;;;1999.90;999.90;;;;;;;15.16;100.00;94395.75;5006493;28;20187;-50
2023/09/15 01:37:13;;;;;;;1999.90;999.90;;;;;;;15.13;100.00;94388.44;5006256;28;20270;-50
2023/09/15 01:39:38;;;;;;;1999.90;999.90;;;;;;;15.11;100.00;94388.09;5006281;28;20269;-49
2023/09/15 01:42:04;;;;;;;1999.90;999.90;;;;;;;15.09;100.00;94384.28;5006503;28;20515;-53
2023/09/15 01:44:29;;;;;;;1999.90;999.90;;;;;;;15.07;100.00;94393.00;5006310;28;20194;-52
2023/09/15 01:46:55;;;;;;;1999.90;999.90;;;;;;;15.04;100.00;94384.91;5006291;28;20187;-53
2023/09/15 01:49:21;;;;;;;1999.90;999.90;;;;;;;15.03;100.00;94380.59;5006312;28;20283;-52
2023/09/15 01:51:48;;;;;;;1999.90;999.90;;;;;;;14.98;100.00;94384.75;5006345;28;20258;-52
2023/09/15 01:54:15;;;;;;;1999.90;999.90;;;;;;;14.96;100.00;94380.91;5006012;28;20270;-53
2023/09/15 01:56:41;;;;;;;1999.90;999.90;;;;;;;14.94;100.00;94384.09;5005919;28;20233;-52
2023/09/15 01:59:06;;;;;;;1999.90;999.90;;;;;;;14.89;100.00;94373.72;5005923;28;20200;-53
2023/09/15 02:01:32;;;;;;;1999.90;999.90;;;;;;;14.86;100.00;94388.38;5005935;28;20207;-51
2023/09/15 02:03:57;;;;;;;1999.90;999.90;;;;;;;14.85;100.00;94375.84;5005825;28;20206;-50
2023/09/15 02:06:22;;;;;;;1999.90;999.90;;;;;;;14.83;100.00;94377.53;5005729;28;20199;-48
2023/09/15 02:08:48;;;;;;;1999.90;999.90;;;;;;;14.83;100.00;94378.28;5005631;28;20191;-52
2023/09/15 02:11:13;;;;;;;1999.90;999.90;;;;;;;14.80;100.00;94378.44;5005808;28;20215;-50
2023/09/15 02:13:43;;;;;;;1999.90;999.90;;;;;;;14.73;100.00;94379.50;5006011;28;20211;-50
2023/09/15 02:16:08;;;;;;;1999.90;999.90;;;;;;;14.75;100.00;94370.78;5005535;28;20207;-48
2023/09/15 02:18:34;;;;;;;1999.90;999.90;;;;;;;14.74;100.00;94370.03;5005481;28;20184;-51
2023/09/15 02:21:00;;;;;;;1999.90;999.90;;;;;;;14.74;100.00;94370.03;5005758;28;20231;-49
2023/09/15 02:23:25;;;;;;;1999.90;999.90;;;;;;;14.72;100.00;94372.44;5005847;28;20200;-50
2023/09/15 02:25:52;;;;;;;1999.90;999.90;;;;;;;14.70;100.00;94374.91;5005921;28;20214;-52
2023/09/15 02:28:20;;;;;;;1999.90;999.90;;;;;;;14.67;100.00;94375.81;5005362;28;20226;-51
2023/09/15 02:30:46;;;;;;;1999.90;999.90;;;;;;;14.68;100.00;94382.81;5005154;28;20216;-52
2023/09/15 02:33:12;;;;;;;1999.90;999.90;;;;;;;14.67;100.00;94383.28;5005333;28;20291;-51
2023/09/15 02:35:37;;;;;;;1999.90;999.90;;;;;;;14.62;100.00;94389.38;5005196;28;20204;-48
2023/09/15 02:38:03;;;;;;;1999.90;999.90;;;;;;;14.59;100.00;94390.28;5005107;28;20195;-49
2023/09/15 02:40:30;;;;;;;1999.90;999.90;;;;;;;14.60;100.00;94403.56;5005654;28;20207;-50
2023/09/15 02:42:55;;;;;;;1999.90;999.90;;;;;;;14.59;100.00;94401.25;5005346;28;20310;-47
2023/09/15 02:45:20;;;;;;;1999.90;999.90;;;;;;;14.57;100.00;94404.47;5005021;28;20203;-52
2023/09/15 02:47:46;;;;;;;1999.90;999.90;;;;;;;14.55;100.00;94406.91;5004918;28;20204;-47
2023/09/15 02:50:11;;;;;;;1999.90;999.90;;;;;;;14.53;100.00;94403.84;5004911;28;20238;-46
2023/09/15 02:52:37;;;;;;;1999.90;999.90;;;;;;;14.51;100.00;94411.00;5005421;28;20196;-48
2023/09/15 02:55:04;;;;;;;1999.90;999.90;;;;;;;14.51;100.00;94409.03;5005453;28;20203;-52
2023/09/15 02:57:31;;;;;;;1999.90;999.90;;;;;;;14.48;100.00;94412.69;5005056;28;20207;-53
2023/09/15 02:59:57;;;;;;;1999.90;999.90;;;;;;;14.45;100.00;94413.59;5004863;28;20237;-49
2023/09/15 03:02:22;;;;;;;1999.90;999.90;;;;;;;14.44;100.00;94423.06;5005193;28;20196;-50
2023/09/15 03:04:48;;;;;;;1999.90;999.90;;;;;;;14.44;100.00;94436.78;5005213;28;20267;-52
2023/09/15 03:07:15;;;;;;;1999.90;999.90;;;;;;;14.41;100.00;94440.44;5004932;28;20195;-51
2023/09/15 03:09:40;;;;;;;1999.90;999.90;;;;;;;14.39;100.00;94442.09;5004703;28;20201;-50
2023/09/15 03:12:05;;;;;;;1999.90;999.90;;;;;;;14.37;100.00;94434.31;5004965;28;20212;-50
2023/09/15 03:14:31;;;;;;;1999.90;999.90;;;;;;;14.35;100.00;94450.47;5004879;28;20219;-52
2023/09/15 03:16:57;;;;;;;1999.90;999.90;;;;;;;14.33;100.00;94433.69;5005022;28;20202;-52
2023/09/15 03:19:22;;;;;;;1999.90;999.90;;;;;;;14.35;100.00;94450.47;5005246;28;20172;-52
2023/09/15 03:21:48;;;;;;;1999.90;999.90;;;;;;;14.40;100.00;94446.38;5004705;28;20196;-52
2023/09/15 03:24:13;;;;;;;1999.90;999.90;;;;;;;14.41;100.00;94458.88;5004881;28;20198;-48
2023/09/15 03:26:40;;;;;;;1999.90;999.90;;;;;;;14.43;100.00;94460.00;5004895;28;20238;-54
2023/09/15 03:29:06;;;;;;;1999.90;999.90;;;;;;;14.50;100.00;94470.69;5020639;28;20198;-50
2023/09/15 03:31:31;;;;;;;1999.90;999.90;;;;;;;14.51;100.00;94471.44;5003964;28;20216;-50
2023/09/15 03:33:57;;;;;;;1999.90;999.90;;;;;;;14.53;100.00;94464.28;5004539;28;20188;-47
2023/09/15 03:36:22;;;;;;;1999.90;999.90;;;;;;;14.59;100.00;94470.75;5004432;28;20274;-52
2023/09/15 03:38:48;;;;;;;1999.90;999.90;;;;;;;14.64;100.00;94480.38;5004512;28;20191;-52
2023/09/15 03:41:14;;;;;;;1999.90;999.90;;;;;;;14.65;100.00;94490.94;5004187;28;20492;-51
2023/09/15 03:43:39;;;;;;;1999.90;999.90;;;;;;;14.66;100.00;94486.19;5004553;28;20196;-53
2023/09/15 03:46:05;;;;;;;1999.90;999.90;;;;;;;14.65;100.00;94482.69;5004138;28;20295;-54
2023/09/15 03:48:30;;;;;;;1999.90;999.90;;;;;;;14.68;100.00;94498.25;5004657;28;20192;-53
2023/09/15 03:50:56;;;;;;;1999.90;999.90;;;;;;;14.70;100.00;94501.31;5006785;28;20207;-51
2023/09/15 03:53:21;;;;;;;1999.90;999.90;;;;;;;14.71;100.00;94507.59;5008737;28;20215;-51
2023/09/15 03:55:48;;;;;;;1999.90;999.90;;;;;;;14.72;100.00;94526.34;5008306;28;20191;-50
2023/09/15 03:58:14;;;;;;;1999.90;999.90;;;;;;;14.66;100.00;94533.69;5008046;28;20251;-52
2023/09/15 04:00:40;;;;;;;1999.90;999.90;;;;;;;14.71;100.00;94527.59;5008083;28;20191;-51
2023/09/15 04:03:05;;;;;;;1999.90;999.90;;;;;;;14.68;100.00;94544.97;5008366;28;20206;-51
2023/09/15 04:05:31;;;;;;;1999.90;999.90;;;;;;;14.66;100.00;94541.91;5008125;28;20187;-48
2023/09/15 04:07:56;;;;;;;1999.90;999.90;;;;;;;14.65;100.00;94554.13;5008009;28;20227;-52
2023/09/15 04:10:22;;;;;;;1999.90;999.90;;;;;;;14.65;100.00;94570.63;5007894;28;20276;-52
2023/09/15 04:12:48;;;;;;;1999.90;999.90;;;;;;;14.59;100.00;94577.91;5007870;28;20267;-52
2023/09/15 04:15:15;;;;;;;1999.90;999.90;;;;;;;14.61;100.00;94580.97;5008228;28;20199;-49
2023/09/15 04:17:41;;;;;;;1999.90;999.90;;;;;;;14.74;100.00;94584.41;5007897;28;20227;-49
2023/09/15 04:20:09;;;;;;;1999.90;999.90;;;;;;;14.68;100.00;94594.44;5007676;28;20183;-49
2023/09/15 04:22:37;;;;;;;1999.90;999.90;;;;;;;14.72;100.00;94600.56;4992441;28;20227;-50
2023/09/15 04:25:03;;;;;;;1999.90;999.90;;;;;;;14.66;100.00;94610.63;5008208;28;20202;-50
2023/09/15 04:27:28;;;;;;;1999.90;999.90;;;;;;;14.62;100.00;94618.25;5007746;28;20191;-52
2023/09/15 04:29:57;;;;;;;1999.90;999.90;;;;;;;14.62;100.00;94631.97;5007777;28;20195;-48
2023/09/15 04:32:23;;;;;;;1999.90;999.90;;;;;;;14.51;100.00;94630.81;5007306;28;20207;-50
2023/09/15 04:34:52;;;;;;;1999.90;999.90;;;;;;;14.51;100.00;94645.34;5007388;28;20190;-49
2023/09/15 04:37:21;;;;;;;1999.90;999.90;;;;;;;14.41;100.00;94654.69;5008083;28;20192;-50
2023/09/15 04:39:49;;;;;;;1999.90;999.90;;;;;;;14.45;100.00;94671.84;5007558;28;20222;-50
2023/09/15 04:42:15;;;;;;;1999.90;999.90;;;;;;;14.41;100.00;94665.69;5007183;28;20249;-50
2023/09/15 04:44:40;;;;;;;1999.90;999.90;;;;;;;14.39;100.00;94670.84;5007735;28;20369;-52
2023/09/15 04:47:06;;;;;;;1999.90;999.90;;;;;;;14.44;100.00;94675.03;5007231;28;20203;-49
2023/09/15 04:49:31;;;;;;;1999.90;999.90;;;;;;;14.40;100.00;94675.16;5007698;28;20357;-49
2023/09/15 04:51:57;;;;;;;1999.90;999.90;;;;;;;14.39;100.00;94657.13;5007309;28;20245;-48
2023/09/15 04:54:22;;;;;;;1999.90;999.90;;;;;;;14.41;100.00;94671.19;5007071;28;20200;-53
2023/09/15 04:56:47;;;;;;;1999.90;999.90;;;;;;;14.47;100.00;94669.41;5007003;28;20199;-50
2023/09/15 04:59:15;;;;;;;1999.90;999.90;;;;;;;14.50;100.00;94668.50;5006839;28;20203;-50
2023/09/15 05:01:42;;;;;;;1999.90;999.90;;;;;;;14.53;100.00;94678.59;5006858;28;20200;-52
2023/09/15 05:04:08;;;;;;;1999.90;999.90;;;;;;;14.47;100.00;94696.88;5006928;28;20196;-53
2023/09/15 05:06:33;;;;;;;1999.90;999.90;;;;;;;14.42;100.00;94700.19;5007065;28;20223;-51
2023/09/15 05:08:59;;;;;;;1999.90;999.90;;;;;;;14.39;100.00;94703.81;5007056;28;20192;-53
2023/09/15 05:11:24;;;;;;;1999.90;999.90;;;;;;;14.33;100.00;94708.34;5006705;28;20215;-55
2023/09/15 05:13:49;;;;;;;1999.90;999.90;;;;;;;14.34;100.00;94706.38;5006980;28;20211;-53
2023/09/15 05:16:16;;;;;;;1999.90;999.90;;;;;;;14.33;100.00;94711.09;5007059;28;20195;-52
2023/09/15 05:18:41;;;;;;;1999.90;999.90;;;;;;;14.37;100.00;94714.50;5007290;28;20207;-48
2023/09/15 05:21:07;;;;;;;1999.90;999.90;;;;;;;14.37;100.00;94725.50;5006851;28;20206;-51
2023/09/15 05:23:32;;;;;;;1999.90;999.90;;;;;;;14.40;100.00;94719.09;5007116;28;20195;-50
2023/09/15 05:25:58;;;;;;;1999.90;999.90;;;;;;;14.39;100.00;94728.53;5023082;28;20199;-52
2023/09/15 05:28:23;;;;;;;1999.90;999.90;;;;;;;14.39;100.00;94728.53;5006723;28;20200;-46
2023/09/15 05:30:48;;;;;;;1999.90;999.90;;;;;;;14.39;100.00;94736.78;5006670;28;20220;-50
2023/09/15 05:33:16;;;;;;;1999.90;999.90;;;;;;;14.41;100.00;94739.09;5006661;28;20275;-47
2023/09/15 05:35:41;;;;;;;1999.90;999.90;;;;;;;14.37;100.00;94739.22;5006011;28;20200;-55
2023/09/15 05:38:07;;;;;;;1999.90;999.90;;;;;;;14.45;100.00;94746.00;5006323;28;20267;-53
2023/09/15 05:40:33;;;;;;;1999.90;999.90;;;;;;;14.48;100.00;94741.59;5006811;28;20200;-47
2023/09/15 05:42:58;;;;;;;1999.90;999.90;;;;;;;14.46;100.00;94747.53;5006498;28;20211;-49
2023/09/15 05:45:24;;;;;;;1999.90;999.90;;;;;;;14.55;100.00;94749.59;5006086;28;20227;-48
2023/09/15 05:47:49;;;;;;;1999.90;999.90;;;;;;;14.44;100.00;94747.22;5006278;28;20195;-46
2023/09/15 05:50:15;;;;;;;1999.90;999.90;;;;;;;14.43;100.00;94747.66;5006173;28;20195;-48
2023/09/15 05:52:41;;;;;;;1999.90;999.90;;;;;;;14.42;100.00;94749.63;5006289;28;20200;-46
2023/09/15 05:55:06;;;;;;;1999.90;999.90;;;;;;;14.37;100.00;94754.94;5006376;28;20262;-47
2023/09/15 05:57:32;;;;;;;1999.90;999.90;;;;;;;14.42;100.00;94763.38;5006336;28;20238;-49
2023/09/15 05:59:57;;;;;;;1999.90;999.90;;;;;;;14.41;100.00;94748.09;5005635;28;20203;-50
2023/09/15 06:02:22;;;;;;;1999.90;999.90;;;;;;;14.38;100.00;94746.25;5005688;28;20242;-46
2023/09/15 06:04:49;;;;;;;1999.90;999.90;;;;;;;14.47;100.00;94740.06;5006456;28;20198;-46
2023/09/15 06:07:15;;;;;;;1999.90;999.90;;;;;;;14.54;100.00;94732.38;5005861;28;20200;-46
2023/09/15 06:09:40;;;;;;;1999.90;999.90;;;;;;;14.62;100.00;94725.41;5005725;28;20206;-48
2023/09/15 06:12:06;;;;;;;1999.90;999.90;;;;;;;14.69;100.00;94718.91;5005322;28;20220;-47
2023/09/15 06:14:35;;;;;;;1999.90;999.90;;;;;;;14.66;100.00;94720.56;5005071;28;20191;-46
2023/09/15 06:17:01;;;;;;;1999.90;999.90;;;;;;;14.81;100.00;94720.81;5005694;28;20211;-49
2023/09/15 06:19:26;;;;;;;1999.90;999.90;;;;;;;14.84;100.00;94730.94;5005599;28;20199;-47
2023/09/15 06:21:52;;;;;;;1999.90;999.90;;;;;;;14.90;100.00;94729.91;5005675;28;20208;-48
2023/09/15 06:24:18;;;;;;;1999.90;999.90;;;;;;;14.93;100.00;94728.25;5005794;28;20215;-46
2023/09/15 06:26:44;;;;;;;1999.90;999.90;;;;;;;14.83;100.00;94751.41;5005634;28;20208;-44
2023/09/15 06:29:09;;;;;;;1999.90;999.90;;;;;;;14.86;100.00;94748.50;5005337;28;20207;-45
2023/09/15 06:31:35;;;;;;;1999.90;999.90;;;;;;;14.89;100.00;94761.38;5005262;28;20222;-45
2023/09/15 06:34:00;;;;;;;1999.90;999.90;;;;;;;14.99;100.00;94754.72;5021446;28;20200;-52
2023/09/15 06:36:26;;;;;;;1999.90;999.90;;;;;;;15.09;100.00;94767.34;5005145;28;20204;-45
2023/09/15 06:38:52;;;;;;;1999.90;999.90;;;;;;;15.23;100.00;94757.81;5005231;28;20270;-45
2023/09/15 06:41:17;;;;;;;1999.90;999.90;;;;;;;15.23;100.00;94764.06;5004872;28;20262;-46
2023/09/15 06:43:43;;;;;;;1999.90;999.90;;;;;;;15.30;100.00;94769.31;5022193;28;20204;-50
2023/09/15 06:46:08;;;;;;;1999.90;999.90;;;;;;;15.36;100.00;94773.06;5005102;28;20200;-54
2023/09/15 06:48:33;;;;;;;1999.90;999.90;;;;;;;15.43;100.00;94786.56;5005021;28;20215;-48
2023/09/15 06:50:59;;;;;;;1999.90;999.90;;;;;;;15.36;100.00;94794.28;5005281;28;20203;-48
2023/09/15 06:53:24;;;;;;;1999.90;999.90;;;;;;;15.38;100.00;94798.16;5005267;28;20195;-47
2023/09/15 06:55:52;;;;;;;1999.90;999.90;;;;;;;15.43;100.00;94799.53;5005116;28;20204;-46
2023/09/15 06:58:18;;;;;;;1999.90;999.90;;;;;;;15.52;100.00;94799.63;5004625;28;20211;-46
2023/09/15 07:00:43;;;;;;;1999.90;999.90;;;;;;;15.64;100.00;94790.50;5004625;28;20214;-53
2023/09/15 07:03:08;;;;;;;1999.90;999.90;;;;;;;15.58;100.00;94784.81;5005176;28;20276;-49
2023/09/15 07:05:34;;;;;;;1999.90;999.90;;;;;;;15.52;100.00;94775.59;5004587;28;20195;-46
2023/09/15 07:07:59;;;;;;;1999.90;999.90;;;;;;;15.63;100.00;94788.97;5004467;28;20192;-47
2023/09/15 07:10:24;;;;;;;1999.90;999.90;;;;;;;15.77;100.00;94775.44;5004536;28;20214;-47
2023/09/15 07:12:50;;;;;;;1999.90;999.90;;;;;;;15.77;100.00;94747.91;5004314;28;20191;-50
2023/09/15 07:15:15;;;;;;;1999.90;999.90;;;;;;;15.82;100.00;94699.75;5004651;28;20192;-48
2023/09/15 07:17:42;;;;;;;1999.90;999.90;;;;;;;16.00;100.00;94639.94;5004969;28;20203;-48
2023/09/15 07:20:07;;;;;;;1999.90;999.90;;;;;;;15.91;100.00;94548.28;5004312;28;20196;-49
2023/09/15 07:22:33;;;;;;;1999.90;999.90;;;;;;;15.98;100.00;94449.63;5004780;28;20215;-48
2023/09/15 07:24:58;;;;;;;1999.90;999.90;;;;;;;15.99;100.00;94401.56;5003628;28;20215;-48
2023/09/15 07:27:23;;;;;;;1999.90;999.90;;;;;;;16.06;100.00;94365.44;5004744;28;20195;-49
2023/09/15 07:29:50;;;;;;;1999.90;999.90;;;;;;;16.03;100.00;94299.50;5004981;28;20271;-50
2023/09/15 07:32:15;;;;;;;1999.90;999.90;;;;;;;16.06;100.00;94274.53;5004906;28;20218;-46
2023/09/15 07:34:41;;;;;;;1999.90;999.90;;;;;;;16.18;100.00;94232.25;5004715;28;20192;-49
2023/09/15 07:37:06;;;;;;;1999.90;999.90;;;;;;;16.12;100.00;94216.81;5004582;28;20282;-46
2023/09/15 07:39:32;;;;;;;1999.90;999.90;;;;;;;16.26;100.00;94205.91;5004386;28;20197;-46
2023/09/15 07:41:57;;;;;;;1999.90;999.90;;;;;;;16.36;100.00;94215.59;5004570;28;20202;-48
2023/09/15 07:44:23;;;;;;;1999.90;999.90;;;;;;;16.42;100.00;94234.31;5004293;28;20375;-49
2023/09/15 07:46:48;;;;;;;1999.90;999.90;;;;;;;16.42;100.00;94241.34;5004181;28;20200;-47
2023/09/15 07:49:13;;;;;;;1999.90;999.90;;;;;;;16.49;100.00;94240.22;5004276;28;20192;-49
2023/09/15 07:51:39;;;;;;;1999.90;999.90;;;;;;;16.44;100.00;94244.38;5020766;28;20203;-48
2023/09/15 07:54:04;;;;;;;1999.90;999.90;;;;;;;16.38;100.00;94268.28;5004704;28;20231;-47
2023/09/15 07:56:29;;;;;;;1999.90;999.90;;;;;;;16.47;100.00;94280.50;5020502;28;20191;-45
2023/09/15 07:58:55;;;;;;;1999.90;999.90;;;;;;;16.62;100.00;94276.59;5004134;28;20204;-50
2023/09/15 08:01:20;;;;;;;1999.90;999.90;;;;;;;16.90;100.00;94283.44;5004142;28;20209;-48
2023/09/15 08:03:45;;;;;;;1999.90;999.90;;;;;;;17.13;100.00;94317.75;5020391;28;20202;-48
2023/09/15 08:06:11;;;;;;;1999.90;999.90;;;;;;;17.32;100.00;94338.44;5004032;28;20206;-47
2023/09/15 08:08:37;;;;;;;1999.90;999.90;;;;;;;17.20;100.00;94386.38;5004016;28;20192;-48
2023/09/15 08:11:03;;;;;;;1999.90;999.90;;;;;;;17.31;100.00;94403.16;5003831;28;20287;-46
2023/09/15 08:13:28;;;;;;;1999.90;999.90;;;;;;;17.29;100.00;94422.19;5004188;28;20195;-49
2023/09/15 08:15:54;;;;;;;1999.90;999.90;;;;;;;17.55;100.00;94439.84;5003943;28;20196;-49
2023/09/15 08:18:20;;;;;;;1999.90;999.90;;;;;;;18.21;100.00;94452.94;5004006;28;20263;-47
2023/09/15 08:20:45;;;;;;;1999.90;999.90;;;;;;;18.40;100.00;94487.50;5004060;28;20223;-46
2023/09/15 08:23:12;;;;;;;1999.90;999.90;;;;;;;18.36;100.00;94549.75;5004534;28;20179;-46
2023/09/15 08:25:38;;;;;;;1999.90;999.90;;;;;;;18.05;100.00;94582.50;5004403;28;20200;-49
2023/09/15 08:28:03;;;;;;;1999.90;999.90;;;;;;;18.05;100.00;94582.50;5004212;28;20198;-48
2023/09/15 08:30:29;;;;;;;1999.90;999.90;;;;;;;18.29;100.00;94586.03;5004034;28;20204;-49
2023/09/15 08:32:55;;;;;;;1999.90;999.90;;;;;;;18.26;100.00;94606.31;5003903;28;20200;-50
2023/09/15 08:35:21;;;;;;;1999.90;999.90;;;;;;;18.27;100.00;94616.13;5003864;28;20195;-48
2023/09/15 08:37:46;;;;;;;1999.90;999.90;;;;;;;18.46;100.00;94612.03;5007143;28;20192;-48
2023/09/15 08:40:11;;;;;;;1999.90;999.90;;;;;;;18.85;100.00;94614.31;5007172;28;20195;-51
2023/09/15 08:42:38;;;;;;;1999.90;999.90;;;;;;;18.67;100.00;94657.97;5007379;28;20203;-52
2023/09/15 08:45:04;;;;;;;1999.90;999.90;;;;;;;18.56;100.00;94671.56;5007373;28;20197;-50
2023/09/15 08:47:34;;;;;;;1999.90;999.90;;;;;;;18.56;100.00;94677.09;5007372;28;20240;-48
2023/09/15 08:50:01;;;;;;;1999.90;999.90;;;;;;;20.00;100.00;94714.53;5007527;28;20503;-50
2023/09/15 08:52:27;;;;;;;1999.90;999.90;;;;;;;21.39;100.00;94904.84;5007110;28;20282;-51
2023/09/15 08:54:54;;;;;;;1999.90;999.90;;;;;;;22.91;100.00;95180.50;5007380;28;20222;-49
2023/09/15 08:57:21;;;;;;;1999.90;999.90;;;;;;;22.88;100.00;95337.47;5006747;28;20203;-51
2023/09/15 08:59:49;;;;;;;1999.90;999.90;;;;;;;23.66;100.00;95384.69;5007141;28;20200;-49
2023/09/15 09:02:15;;;;;;;1999.90;999.90;;;;;;;24.05;100.00;95438.97;5007260;28;20187;-50
2023/09/15 09:04:41;;;;;;;1999.90;999.90;;;;;;;22.74;100.00;95442.09;5006905;28;20222;-48
2023/09/15 09:07:07;;;;;;;1999.90;999.90;;;;;;;22.00;100.00;95393.16;5006789;28;20195;-48
2023/09/15 09:09:34;;;;;;;1999.90;999.90;;;;;;;22.49;100.00;95373.06;5006988;28;20192;-46
2023/09/15 09:11:59;;;;;;;1999.90;999.90;;;;;;;22.59;100.00;95359.81;5006797;28;20234;-47
2023/09/15 09:14:25;;;;;;;1999.90;999.90;;;;;;;21.84;100.00;95363.03;5006683;28;20191;-49
2023/09/15 09:16:52;;;;;;;1999.90;999.90;;;;;;;21.42;100.00;95275.50;5006905;28;20191;-50
2023/09/15 09:19:18;;;;;;;1999.90;999.90;;;;;;;22.16;100.00;95300.91;5006758;28;20187;-52
2023/09/15 09:21:44;;;;;;;1999.90;999.90;;;;;;;21.41;100.00;95319.19;5006666;28;20172;-49
2023/09/15 09:24:10;;;;;;;1999.90;999.90;;;;;;;21.67;100.00;95283.28;5007002;28;20239;-46
2023/09/15 09:26:35;;;;;;;1999.90;999.90;;;;;;;22.69;100.00;95313.91;5006954;28;20187;-46
2023/09/15 09:29:02;;;;;;;1999.90;999.90;;;;;;;24.13;100.00;95429.69;5006832;28;20266;-50
2023/09/15 09:31:28;;;;;;;1999.90;999.90;;;;;;;24.88;100.00;95446.94;5006992;28;20199;-45
2023/09/15 09:33:55;;;;;;;1999.90;999.90;;;;;;;25.60;100.00;95486.69;5006480;28;20271;-50
2023/09/15 09:36:20;;;;;;;1999.90;999.90;;;;;;;25.36;100.00;95505.84;5006564;28;20199;-47
2023/09/15 09:38:51;;;;;;;1999.90;999.90;;;;;;;24.82;100.00;95495.69;5023168;28;20195;-46
2023/09/15 09:41:18;;;;;;;1999.90;999.90;;;;;;;24.25;100.00;95486.38;5006410;28;20195;-49
2023/09/15 09:43:48;;;;;;;1999.90;999.90;;;;;;;23.21;100.00;95452.22;5006403;28;20227;-48
2023/09/15 09:46:16;;;;;;;1999.90;999.90;;;;;;;23.33;100.00;95434.44;5006057;28;20198;-47
2023/09/15 09:48:42;;;;;;;1999.90;999.90;;;;;;;23.36;100.00;95436.25;5005034;28;20186;-48
2023/09/15 09:51:08;;;;;;;1999.90;999.90;;;;;;;23.60;100.00;95437.59;5006455;28;20219;-46
2023/09/15 09:53:35;;;;;;;1999.90;999.90;;;;;;;23.65;100.00;95447.31;5006476;28;20192;-49
2023/09/15 09:56:03;;;;;;;1999.90;999.90;;;;;;;22.91;100.00;95414.50;5006742;28;20210;-48
2023/09/15 09:58:28;;;;;;;1999.90;999.90;;;;;;;23.48;100.00;95435.16;5005812;28;20223;-45
2023/09/15 10:00:53;;;;;;;1999.90;999.90;;;;;;;24.84;100.00;95454.06;5006136;28;20208;-48
2023/09/15 10:03:21;;;;;;;1999.90;999.90;;;;;;;25.00;100.00;95484.16;5005797;28;20230;-46
2023/09/15 10:05:47;;;;;;;1999.90;999.90;;;;;;;25.33;100.00;95471.25;5005786;28;20199;-46
2023/09/15 10:08:14;;;;;;;1999.90;999.90;;;;;;;26.01;100.00;95493.59;5005708;28;20198;-47
2023/09/15 10:10:43;;;;;;;1999.90;999.90;;;;;;;26.11;100.00;95500.47;5005665;28;20311;-46
2023/09/15 10:13:15;;;;;;;1999.90;999.90;;;;;;;25.49;100.00;95495.00;5005468;28;20225;-45
2023/09/15 10:15:41;;;;;;;1999.90;999.90;;;;;;;26.13;100.00;95486.75;5005734;28;20196;-45
2023/09/15 10:18:09;;;;;;;1999.90;999.90;;;;;;;26.32;100.00;95501.84;5006015;28;20207;-46
2023/09/15 10:20:37;;;;;;;1999.90;999.90;;;;;;;26.53;100.00;95497.59;5005983;28;20187;-50
2023/09/15 10:23:04;;;;;;;1999.90;999.90;;;;;;;26.19;100.00;95509.97;5005634;28;20195;-48
2023/09/15 10:25:42;;;;;;;1999.90;999.90;;;;;;;26.41;100.00;95493.25;5005448;28;20196;-46
2023/09/15 10:28:11;;;;;;;1999.90;999.90;;;;;;;25.57;100.00;95493.28;5005865;28;20195;-45
2023/09/15 10:30:37;;;;;;;1999.90;999.90;;;;;;;25.61;100.00;95493.81;5005132;28;20239;-49
2023/09/15 10:33:04;;;;;;;1999.90;999.90;;;;;;;25.55;100.00;95490.22;5005412;28;20222;-47
2023/09/15 10:35:31;;;;;;;1999.90;999.90;;;;;;;25.77;100.00;95489.56;5005252;28;20203;-48
2023/09/15 10:38:02;;;;;;;1999.90;999.90;;;;;;;25.10;100.00;95488.31;5005377;28;20203;-47
2023/09/15 10:40:29;;;;;;;1999.90;999.90;;;;;;;25.10;100.00;95479.94;5005551;28;20183;-49
2023/09/15 10:42:55;;;;;;;1999.90;999.90;;;;;;;25.45;100.00;95476.94;5005204;28;20249;-48